sensor_id;sensor_type;location;lat;lon;timestamp;P1;durP1;ratioP1;P2;durP2;ratioP2
26106;SDS011;13866;50.748;12.630;2023-05-07T00:00:17;39.80;;;26.83;;
26106;SDS011;13866;50.748;12.630;2023-05-07T00:02:44;32.37;;;25.17;;
26106;SDS011;13866;50.748;12.630;2023-05-07T00:05:10;39.20;;;29.17;;
26106;SDS011;13866;50.748;12.630;2023-05-07T00:07:35;33.33;;;25.90;;
26106;SDS011;13866;50.748;12.630;2023-05-07T00:10:01;40.10;;;26.60;;
26106;SDS011;13866;50.748;12.630;2023-05-07T00:12:27;36.83;;;25.23;;
26106;SDS011;13866;50.748;12.630;2023-05-07T00:14:55;34.43;;;25.40;;
26106;SDS011;13866;50.748;12.630;2023-05-07T00:17:20;30.30;;;24.17;;
26106;SDS011;13866;50.748;12.630;2023-05-07T00:19:46;39.63;;;25.73;;
26106;SDS011;13866;50.748;12.630;2023-05-07T00:22:11;31.70;;;23.10;;
26106;SDS011;13866;50.748;12.630;2023-05-07T00:24:37;31.57;;;24.60;;
26106;SDS011;13866;50.748;12.630;2023-05-07T00:27:02;30.93;;;24.23;;
26106;SDS011;13866;50.748;12.630;2023-05-07T00:29:28;30.50;;;22.63;;
26106;SDS011;13866;50.748;12.630;2023-05-07T00:31:53;28.17;;;22.17;;
26106;SDS011;13866;50.748;12.630;2023-05-07T00:34:19;28.73;;;21.10;;
26106;SDS011;13866;50.748;12.630;2023-05-07T00:36:45;27.00;;;21.80;;
26106;SDS011;13866;50.748;12.630;2023-05-07T00:39:10;23.73;;;20.73;;
26106;SDS011;13866;50.748;12.630;2023-05-07T00:41:36;28.30;;;21.63;;
26106;SDS011;13866;50.748;12.630;2023-05-07T00:44:02;25.70;;;21.80;;
26106;SDS011;13866;50.748;12.630;2023-05-07T00:46:27;25.40;;;20.83;;
26106;SDS011;13866;50.748;12.630;2023-05-07T00:48:55;31.00;;;23.17;;
26106;SDS011;13866;50.748;12.630;2023-05-07T00:51:20;28.27;;;20.77;;
26106;SDS011;13866;50.748;12.630;2023-05-07T00:53:46;23.43;;;19.00;;
26106;SDS011;13866;50.748;12.630;2023-05-07T00:56:12;26.43;;;20.27;;
26106;SDS011;13866;50.748;12.630;2023-05-07T00:58:38;27.70;;;19.57;;
26106;SDS011;13866;50.748;12.630;2023-05-07T01:01:05;27.83;;;19.73;;
26106;SDS011;13866;50.748;12.630;2023-05-07T01:03:31;22.27;;;19.33;;
26106;SDS011;13866;50.748;12.630;2023-05-07T01:05:56;25.20;;;19.23;;
26106;SDS011;13866;50.748;12.630;2023-05-07T01:08:23;21.73;;;19.43;;
26106;SDS011;13866;50.748;12.630;2023-05-07T01:10:51;21.80;;;18.73;;
26106;SDS011;13866;50.748;12.630;2023-05-07T01:13:17;26.50;;;17.97;;
26106;SDS011;13866;50.748;12.630;2023-05-07T01:15:43;23.40;;;17.70;;
26106;SDS011;13866;50.748;12.630;2023-05-07T01:18:09;25.53;;;17.03;;
26106;SDS011;13866;50.748;12.630;2023-05-07T01:20:35;25.80;;;17.37;;
26106;SDS011;13866;50.748;12.630;2023-05-07T01:23:00;21.87;;;17.27;;
26106;SDS011;13866;50.748;12.630;2023-05-07T01:25:28;21.40;;;16.30;;
26106;SDS011;13866;50.748;12.630;2023-05-07T01:27:53;19.80;;;17.00;;
26106;SDS011;13866;50.748;12.630;2023-05-07T01:30:20;21.43;;;15.13;;
26106;SDS011;13866;50.748;12.630;2023-05-07T01:32:56;13.97;;;12.63;;
26106;SDS011;13866;50.748;12.630;2023-05-07T01:35:30;27.20;;;15.80;;
26106;SDS011;13866;50.748;12.630;2023-05-07T01:38:00;17.03;;;14.93;;
26106;SDS011;13866;50.748;12.630;2023-05-07T01:40:29;17.17;;;15.03;;
26106;SDS011;13866;50.748;12.630;2023-05-07T01:42:55;17.03;;;14.70;;
26106;SDS011;13866;50.748;12.630;2023-05-07T01:45:21;15.60;;;13.90;;
26106;SDS011;13866;50.748;12.630;2023-05-07T01:47:47;16.43;;;14.47;;
26106;SDS011;13866;50.748;12.630;2023-05-07T01:50:13;14.60;;;13.20;;
26106;SDS011;13866;50.748;12.630;2023-05-07T01:52:42;18.30;;;14.50;;
26106;SDS011;13866;50.748;12.630;2023-05-07T01:55:07;21.20;;;14.67;;
26106;SDS011;13866;50.748;12.630;2023-05-07T01:57:33;15.60;;;13.77;;
26106;SDS011;13866;50.748;12.630;2023-05-07T01:59:59;18.50;;;15.17;;
26106;SDS011;13866;50.748;12.630;2023-05-07T02:02:24;14.63;;;13.23;;
26106;SDS011;13866;50.748;12.630;2023-05-07T02:04:50;16.70;;;12.07;;
26106;SDS011;13866;50.748;12.630;2023-05-07T02:07:15;13.43;;;12.13;;
26106;SDS011;13866;50.748;12.630;2023-05-07T02:09:40;18.33;;;13.20;;
26106;SDS011;13866;50.748;12.630;2023-05-07T02:12:06;14.57;;;12.87;;
26106;SDS011;13866;50.748;12.630;2023-05-07T02:14:31;13.80;;;12.40;;
26106;SDS011;13866;50.748;12.630;2023-05-07T02:16:57;13.03;;;11.87;;
26106;SDS011;13866;50.748;12.630;2023-05-07T02:19:22;12.90;;;11.73;;
26106;SDS011;13866;50.748;12.630;2023-05-07T02:21:48;13.10;;;11.93;;
26106;SDS011;13866;50.748;12.630;2023-05-07T02:24:13;14.00;;;12.30;;
26106;SDS011;13866;50.748;12.630;2023-05-07T02:26:39;13.70;;;12.60;;
26106;SDS011;13866;50.748;12.630;2023-05-07T02:29:06;17.53;;;13.40;;
26106;SDS011;13866;50.748;12.630;2023-05-07T02:31:31;14.00;;;12.57;;
26106;SDS011;13866;50.748;12.630;2023-05-07T02:33:58;12.07;;;11.07;;
26106;SDS011;13866;50.748;12.630;2023-05-07T02:36:24;13.70;;;12.50;;
26106;SDS011;13866;50.748;12.630;2023-05-07T02:38:50;12.80;;;11.50;;
26106;SDS011;13866;50.748;12.630;2023-05-07T02:41:15;15.77;;;12.20;;
26106;SDS011;13866;50.748;12.630;2023-05-07T02:43:41;12.63;;;11.30;;
26106;SDS011;13866;50.748;12.630;2023-05-07T02:46:07;14.07;;;12.77;;
26106;SDS011;13866;50.748;12.630;2023-05-07T02:48:33;13.73;;;12.50;;
26106;SDS011;13866;50.748;12.630;2023-05-07T02:50:59;12.77;;;11.63;;
26106;SDS011;13866;50.748;12.630;2023-05-07T02:53:26;12.93;;;11.80;;
26106;SDS011;13866;50.748;12.630;2023-05-07T02:55:52;13.60;;;12.30;;
26106;SDS011;13866;50.748;12.630;2023-05-07T02:58:18;12.47;;;11.47;;
26106;SDS011;13866;50.748;12.630;2023-05-07T03:00:44;13.20;;;11.90;;
26106;SDS011;13866;50.748;12.630;2023-05-07T03:03:10;13.93;;;12.50;;
26106;SDS011;13866;50.748;12.630;2023-05-07T03:05:35;13.73;;;12.57;;
26106;SDS011;13866;50.748;12.630;2023-05-07T03:08:01;14.30;;;12.50;;
26106;SDS011;13866;50.748;12.630;2023-05-07T03:10:26;16.10;;;14.50;;
26106;SDS011;13866;50.748;12.630;2023-05-07T03:12:52;16.50;;;14.73;;
26106;SDS011;13866;50.748;12.630;2023-05-07T03:15:17;16.53;;;14.77;;
26106;SDS011;13866;50.748;12.630;2023-05-07T03:17:43;16.63;;;14.87;;
26106;SDS011;13866;50.748;12.630;2023-05-07T03:20:08;18.67;;;15.23;;
26106;SDS011;13866;50.748;12.630;2023-05-07T03:22:34;16.50;;;14.57;;
26106;SDS011;13866;50.748;12.630;2023-05-07T03:25:00;17.77;;;15.83;;
26106;SDS011;13866;50.748;12.630;2023-05-07T03:27:25;21.50;;;17.63;;
26106;SDS011;13866;50.748;12.630;2023-05-07T03:29:51;22.10;;;18.27;;
26106;SDS011;13866;50.748;12.630;2023-05-07T03:32:16;20.70;;;16.90;;
26106;SDS011;13866;50.748;12.630;2023-05-07T03:34:42;21.57;;;18.63;;
26106;SDS011;13866;50.748;12.630;2023-05-07T03:37:07;21.40;;;18.37;;
26106;SDS011;13866;50.748;12.630;2023-05-07T03:39:32;23.80;;;19.73;;
26106;SDS011;13866;50.748;12.630;2023-05-07T03:41:58;21.50;;;18.47;;
26106;SDS011;13866;50.748;12.630;2023-05-07T03:44:23;19.40;;;17.47;;
26106;SDS011;13866;50.748;12.630;2023-05-07T03:46:49;23.93;;;19.57;;
26106;SDS011;13866;50.748;12.630;2023-05-07T03:49:14;22.47;;;18.17;;
26106;SDS011;13866;50.748;12.630;2023-05-07T03:51:40;24.67;;;19.30;;
26106;SDS011;13866;50.748;12.630;2023-05-07T03:54:05;22.17;;;19.83;;
26106;SDS011;13866;50.748;12.630;2023-05-07T03:56:31;27.60;;;20.80;;
26106;SDS011;13866;50.748;12.630;2023-05-07T03:58:56;25.43;;;21.10;;
26106;SDS011;13866;50.748;12.630;2023-05-07T04:01:22;26.13;;;20.47;;
26106;SDS011;13866;50.748;12.630;2023-05-07T04:03:47;23.37;;;20.10;;
26106;SDS011;13866;50.748;12.630;2023-05-07T04:06:13;25.67;;;22.00;;
26106;SDS011;13866;50.748;12.630;2023-05-07T04:08:40;25.30;;;20.37;;
26106;SDS011;13866;50.748;12.630;2023-05-07T04:11:05;23.37;;;20.93;;
26106;SDS011;13866;50.748;12.630;2023-05-07T04:13:31;29.00;;;21.37;;
26106;SDS011;13866;50.748;12.630;2023-05-07T04:15:56;30.43;;;19.97;;
26106;SDS011;13866;50.748;12.630;2023-05-07T04:18:22;27.17;;;21.53;;
26106;SDS011;13866;50.748;12.630;2023-05-07T04:20:48;25.30;;;21.10;;
26106;SDS011;13866;50.748;12.630;2023-05-07T04:23:15;26.93;;;20.83;;
26106;SDS011;13866;50.748;12.630;2023-05-07T04:25:40;29.03;;;22.73;;
26106;SDS011;13866;50.748;12.630;2023-05-07T04:28:06;27.10;;;20.37;;
26106;SDS011;13866;50.748;12.630;2023-05-07T04:30:32;27.93;;;22.50;;
26106;SDS011;13866;50.748;12.630;2023-05-07T04:32:57;22.73;;;19.70;;
26106;SDS011;13866;50.748;12.630;2023-05-07T04:35:23;26.93;;;20.60;;
26106;SDS011;13866;50.748;12.630;2023-05-07T04:37:48;28.60;;;22.83;;
26106;SDS011;13866;50.748;12.630;2023-05-07T04:40:13;28.90;;;22.27;;
26106;SDS011;13866;50.748;12.630;2023-05-07T04:42:39;25.67;;;21.97;;
26106;SDS011;13866;50.748;12.630;2023-05-07T04:45:05;26.47;;;22.10;;
26106;SDS011;13866;50.748;12.630;2023-05-07T04:47:31;27.73;;;22.27;;
26106;SDS011;13866;50.748;12.630;2023-05-07T04:49:57;29.97;;;22.47;;
26106;SDS011;13866;50.748;12.630;2023-05-07T04:52:23;24.80;;;21.83;;
26106;SDS011;13866;50.748;12.630;2023-05-07T04:54:48;26.10;;;21.70;;
26106;SDS011;13866;50.748;12.630;2023-05-07T04:57:14;30.00;;;23.40;;
26106;SDS011;13866;50.748;12.630;2023-05-07T04:59:39;35.93;;;24.13;;
26106;SDS011;13866;50.748;12.630;2023-05-07T05:02:05;27.07;;;22.47;;
26106;SDS011;13866;50.748;12.630;2023-05-07T05:04:30;32.37;;;24.23;;
26106;SDS011;13866;50.748;12.630;2023-05-07T05:06:56;27.87;;;22.30;;
26106;SDS011;13866;50.748;12.630;2023-05-07T05:09:21;26.70;;;23.03;;
26106;SDS011;13866;50.748;12.630;2023-05-07T05:11:47;32.23;;;23.70;;
26106;SDS011;13866;50.748;12.630;2023-05-07T05:14:12;25.13;;;21.90;;
26106;SDS011;13866;50.748;12.630;2023-05-07T05:16:38;25.50;;;22.80;;
26106;SDS011;13866;50.748;12.630;2023-05-07T05:19:03;31.90;;;22.13;;
26106;SDS011;13866;50.748;12.630;2023-05-07T05:21:28;26.17;;;22.90;;
26106;SDS011;13866;50.748;12.630;2023-05-07T05:23:54;25.80;;;21.20;;
26106;SDS011;13866;50.748;12.630;2023-05-07T05:26:20;25.53;;;19.97;;
26106;SDS011;13866;50.748;12.630;2023-05-07T05:28:46;23.27;;;20.37;;
26106;SDS011;13866;50.748;12.630;2023-05-07T05:31:11;25.50;;;21.83;;
26106;SDS011;13866;50.748;12.630;2023-05-07T05:33:37;26.47;;;22.10;;
26106;SDS011;13866;50.748;12.630;2023-05-07T05:36:02;31.13;;;19.47;;
26106;SDS011;13866;50.748;12.630;2023-05-07T05:38:28;24.63;;;19.83;;
26106;SDS011;13866;50.748;12.630;2023-05-07T05:40:54;22.90;;;19.90;;
26106;SDS011;13866;50.748;12.630;2023-05-07T05:43:19;23.50;;;20.60;;
26106;SDS011;13866;50.748;12.630;2023-05-07T05:45:45;22.03;;;19.57;;
26106;SDS011;13866;50.748;12.630;2023-05-07T05:48:10;20.10;;;17.90;;
26106;SDS011;13866;50.748;12.630;2023-05-07T05:50:36;20.03;;;17.33;;
26106;SDS011;13866;50.748;12.630;2023-05-07T05:53:02;19.90;;;16.10;;
26106;SDS011;13866;50.748;12.630;2023-05-07T05:55:27;18.43;;;16.47;;
26106;SDS011;13866;50.748;12.630;2023-05-07T05:57:53;18.97;;;16.83;;
26106;SDS011;13866;50.748;12.630;2023-05-07T06:00:18;19.53;;;16.83;;
26106;SDS011;13866;50.748;12.630;2023-05-07T06:02:47;16.47;;;14.90;;
26106;SDS011;13866;50.748;12.630;2023-05-07T06:05:12;18.47;;;14.80;;
26106;SDS011;13866;50.748;12.630;2023-05-07T06:07:38;19.93;;;15.63;;
26106;SDS011;13866;50.748;12.630;2023-05-07T06:10:03;16.97;;;15.33;;
26106;SDS011;13866;50.748;12.630;2023-05-07T06:12:30;16.13;;;14.70;;
26106;SDS011;13866;50.748;12.630;2023-05-07T06:14:55;16.73;;;14.00;;
26106;SDS011;13866;50.748;12.630;2023-05-07T06:17:20;16.23;;;14.53;;
26106;SDS011;13866;50.748;12.630;2023-05-07T06:19:46;16.03;;;14.33;;
26106;SDS011;13866;50.748;12.630;2023-05-07T06:22:11;15.60;;;14.17;;
26106;SDS011;13866;50.748;12.630;2023-05-07T06:24:37;15.60;;;14.13;;
26106;SDS011;13866;50.748;12.630;2023-05-07T06:27:02;19.93;;;15.87;;
26106;SDS011;13866;50.748;12.630;2023-05-07T06:29:28;17.27;;;15.30;;
26106;SDS011;13866;50.748;12.630;2023-05-07T06:31:56;15.50;;;13.87;;
26106;SDS011;13866;50.748;12.630;2023-05-07T06:34:21;18.00;;;14.40;;
26106;SDS011;13866;50.748;12.630;2023-05-07T06:36:47;15.60;;;13.73;;
26106;SDS011;13866;50.748;12.630;2023-05-07T06:39:12;15.50;;;13.60;;
26106;SDS011;13866;50.748;12.630;2023-05-07T06:41:38;15.60;;;14.00;;
26106;SDS011;13866;50.748;12.630;2023-05-07T06:44:04;16.93;;;15.23;;
26106;SDS011;13866;50.748;12.630;2023-05-07T06:46:29;17.30;;;15.00;;
26106;SDS011;13866;50.748;12.630;2023-05-07T06:48:55;15.53;;;13.93;;
26106;SDS011;13866;50.748;12.630;2023-05-07T06:51:21;14.67;;;13.43;;
26106;SDS011;13866;50.748;12.630;2023-05-07T06:53:47;16.20;;;14.53;;
26106;SDS011;13866;50.748;12.630;2023-05-07T06:56:12;18.03;;;16.13;;
26106;SDS011;13866;50.748;12.630;2023-05-07T06:58:38;14.87;;;13.37;;
26106;SDS011;13866;50.748;12.630;2023-05-07T07:01:03;16.07;;;14.37;;
26106;SDS011;13866;50.748;12.630;2023-05-07T07:03:29;15.60;;;14.20;;
26106;SDS011;13866;50.748;12.630;2023-05-07T07:05:55;15.13;;;13.73;;
26106;SDS011;13866;50.748;12.630;2023-05-07T07:08:21;16.60;;;13.87;;
26106;SDS011;13866;50.748;12.630;2023-05-07T07:10:47;16.30;;;13.93;;
26106;SDS011;13866;50.748;12.630;2023-05-07T07:13:13;14.87;;;13.53;;
26106;SDS011;13866;50.748;12.630;2023-05-07T07:15:39;14.73;;;13.40;;
26106;SDS011;13866;50.748;12.630;2023-05-07T07:18:05;14.57;;;13.47;;
26106;SDS011;13866;50.748;12.630;2023-05-07T07:20:30;14.47;;;13.10;;
26106;SDS011;13866;50.748;12.630;2023-05-07T07:22:56;19.00;;;12.53;;
26106;SDS011;13866;50.748;12.630;2023-05-07T07:25:21;13.77;;;12.30;;
26106;SDS011;13866;50.748;12.630;2023-05-07T07:27:47;17.40;;;12.67;;
26106;SDS011;13866;50.748;12.630;2023-05-07T07:30:12;12.73;;;11.73;;
26106;SDS011;13866;50.748;12.630;2023-05-07T07:32:38;12.87;;;11.87;;
26106;SDS011;13866;50.748;12.630;2023-05-07T07:35:03;13.03;;;11.70;;
26106;SDS011;13866;50.748;12.630;2023-05-07T07:37:29;13.43;;;12.20;;
26106;SDS011;13866;50.748;12.630;2023-05-07T07:39:55;13.00;;;11.70;;
26106;SDS011;13866;50.748;12.630;2023-05-07T07:42:20;13.27;;;12.10;;
26106;SDS011;13866;50.748;12.630;2023-05-07T07:44:46;13.03;;;11.73;;
26106;SDS011;13866;50.748;12.630;2023-05-07T07:47:11;11.70;;;10.70;;
26106;SDS011;13866;50.748;12.630;2023-05-07T07:49:37;11.57;;;10.67;;
26106;SDS011;13866;50.748;12.630;2023-05-07T07:52:02;11.73;;;10.83;;
26106;SDS011;13866;50.748;12.630;2023-05-07T07:54:28;11.33;;;10.33;;
26106;SDS011;13866;50.748;12.630;2023-05-07T07:56:54;10.80;;;10.10;;
26106;SDS011;13866;50.748;12.630;2023-05-07T07:59:19;11.53;;;10.73;;
26106;SDS011;13866;50.748;12.630;2023-05-07T08:01:45;10.80;;;9.70;;
26106;SDS011;13866;50.748;12.630;2023-05-07T08:04:13;14.53;;;11.83;;
26106;SDS011;13866;50.748;12.630;2023-05-07T08:06:38;10.30;;;9.50;;
26106;SDS011;13866;50.748;12.630;2023-05-07T08:09:04;9.23;;;8.63;;
26106;SDS011;13866;50.748;12.630;2023-05-07T08:11:29;10.10;;;9.47;;
26106;SDS011;13866;50.748;12.630;2023-05-07T08:13:55;12.00;;;11.00;;
26106;SDS011;13866;50.748;12.630;2023-05-07T08:16:21;10.30;;;9.50;;
26106;SDS011;13866;50.748;12.630;2023-05-07T08:18:46;12.80;;;11.60;;
26106;SDS011;13866;50.748;12.630;2023-05-07T08:21:12;10.77;;;9.63;;
26106;SDS011;13866;50.748;12.630;2023-05-07T08:23:37;11.37;;;10.47;;
26106;SDS011;13866;50.748;12.630;2023-05-07T08:26:03;11.10;;;10.07;;
26106;SDS011;13866;50.748;12.630;2023-05-07T08:28:28;11.57;;;10.50;;
26106;SDS011;13866;50.748;12.630;2023-05-07T08:30:54;12.00;;;11.00;;
26106;SDS011;13866;50.748;12.630;2023-05-07T08:33:21;11.33;;;10.43;;
26106;SDS011;13866;50.748;12.630;2023-05-07T08:35:47;10.23;;;9.60;;
26106;SDS011;13866;50.748;12.630;2023-05-07T08:38:12;11.50;;;10.30;;
26106;SDS011;13866;50.748;12.630;2023-05-07T08:40:38;11.20;;;10.30;;
26106;SDS011;13866;50.748;12.630;2023-05-07T08:43:06;10.43;;;9.70;;
26106;SDS011;13866;50.748;12.630;2023-05-07T08:45:32;10.70;;;9.87;;
26106;SDS011;13866;50.748;12.630;2023-05-07T08:47:59;11.23;;;10.23;;
26106;SDS011;13866;50.748;12.630;2023-05-07T08:50:27;10.80;;;9.90;;
26106;SDS011;13866;50.748;12.630;2023-05-07T08:52:53;11.50;;;9.97;;
26106;SDS011;13866;50.748;12.630;2023-05-07T08:55:18;10.30;;;9.50;;
26106;SDS011;13866;50.748;12.630;2023-05-07T08:57:44;11.27;;;10.33;;
26106;SDS011;13866;50.748;12.630;2023-05-07T09:00:10;9.87;;;9.07;;
26106;SDS011;13866;50.748;12.630;2023-05-07T09:02:36;9.50;;;8.70;;
26106;SDS011;13866;50.748;12.630;2023-05-07T09:05:02;9.80;;;9.10;;
26106;SDS011;13866;50.748;12.630;2023-05-07T09:07:28;9.33;;;8.83;;
26106;SDS011;13866;50.748;12.630;2023-05-07T09:09:55;10.73;;;9.83;;
26106;SDS011;13866;50.748;12.630;2023-05-07T09:12:21;9.93;;;9.17;;
26106;SDS011;13866;50.748;12.630;2023-05-07T09:14:47;9.83;;;9.23;;
26106;SDS011;13866;50.748;12.630;2023-05-07T09:17:13;9.23;;;8.43;;
26106;SDS011;13866;50.748;12.630;2023-05-07T09:19:40;9.10;;;8.60;;
26106;SDS011;13866;50.748;12.630;2023-05-07T09:22:06;8.27;;;7.77;;
26106;SDS011;13866;50.748;12.630;2023-05-07T09:24:32;8.20;;;7.70;;
26106;SDS011;13866;50.748;12.630;2023-05-07T09:27:02;8.40;;;7.80;;
26106;SDS011;13866;50.748;12.630;2023-05-07T09:29:28;9.53;;;8.77;;
26106;SDS011;13866;50.748;12.630;2023-05-07T09:31:55;7.63;;;7.00;;
26106;SDS011;13866;50.748;12.630;2023-05-07T09:34:21;7.60;;;7.20;;
26106;SDS011;13866;50.748;12.630;2023-05-07T09:36:47;7.40;;;7.00;;
26106;SDS011;13866;50.748;12.630;2023-05-07T09:39:13;7.53;;;7.20;;
26106;SDS011;13866;50.748;12.630;2023-05-07T09:41:45;7.33;;;6.73;;
26106;SDS011;13866;50.748;12.630;2023-05-07T09:44:12;8.47;;;7.87;;
26106;SDS011;13866;50.748;12.630;2023-05-07T09:46:39;7.60;;;7.20;;
26106;SDS011;13866;50.748;12.630;2023-05-07T09:49:08;7.80;;;7.40;;
26106;SDS011;13866;50.748;12.630;2023-05-07T09:51:49;7.53;;;7.10;;
26106;SDS011;13866;50.748;12.630;2023-05-07T09:54:16;8.73;;;7.30;;
26106;SDS011;13866;50.748;12.630;2023-05-07T09:56:45;6.97;;;6.67;;
26106;SDS011;13866;50.748;12.630;2023-05-07T09:59:14;6.83;;;6.53;;
26106;SDS011;13866;50.748;12.630;2023-05-07T10:01:41;6.50;;;6.00;;
26106;SDS011;13866;50.748;12.630;2023-05-07T10:04:08;6.70;;;6.30;;
26106;SDS011;13866;50.748;12.630;2023-05-07T10:06:35;6.73;;;6.43;;
26106;SDS011;13866;50.748;12.630;2023-05-07T10:09:02;5.90;;;5.60;;
26106;SDS011;13866;50.748;12.630;2023-05-07T10:11:30;6.50;;;6.10;;
26106;SDS011;13866;50.748;12.630;2023-05-07T10:14:00;5.47;;;5.27;;
26106;SDS011;13866;50.748;12.630;2023-05-07T10:16:28;6.47;;;6.20;;
26106;SDS011;13866;50.748;12.630;2023-05-07T10:18:58;4.80;;;4.60;;
26106;SDS011;13866;50.748;12.630;2023-05-07T10:21:24;5.03;;;4.83;;
26106;SDS011;13866;50.748;12.630;2023-05-07T10:23:59;5.20;;;5.00;;
26106;SDS011;13866;50.748;12.630;2023-05-07T10:26:28;4.93;;;4.70;;
26106;SDS011;13866;50.748;12.630;2023-05-07T10:28:59;5.27;;;5.17;;
26106;SDS011;13866;50.748;12.630;2023-05-07T10:31:43;5.13;;;4.83;;
26106;SDS011;13866;50.748;12.630;2023-05-07T10:34:17;4.80;;;4.70;;
26106;SDS011;13866;50.748;12.630;2023-05-07T10:36:46;5.20;;;4.90;;
26106;SDS011;13866;50.748;12.630;2023-05-07T10:39:13;5.20;;;4.80;;
26106;SDS011;13866;50.748;12.630;2023-05-07T10:41:39;5.30;;;5.17;;
26106;SDS011;13866;50.748;12.630;2023-05-07T10:44:04;5.83;;;5.53;;
26106;SDS011;13866;50.748;12.630;2023-05-07T10:46:30;5.33;;;5.10;;
26106;SDS011;13866;50.748;12.630;2023-05-07T10:51:25;5.63;;;5.23;;
26106;SDS011;13866;50.748;12.630;2023-05-07T10:56:36;37.23;;;5.63;;
26106;SDS011;13866;50.748;12.630;2023-05-07T11:01:50;5.17;;;4.93;;
26106;SDS011;13866;50.748;12.630;2023-05-07T11:04:17;6.23;;;5.83;;
26106;SDS011;13866;50.748;12.630;2023-05-07T11:17:32;4.93;;;4.77;;
26106;SDS011;13866;50.748;12.630;2023-05-07T11:19:59;5.30;;;5.20;;
26106;SDS011;13866;50.748;12.630;2023-05-07T11:25:01;5.40;;;5.20;;
26106;SDS011;13866;50.748;12.630;2023-05-07T11:27:27;4.00;;;3.90;;
26106;SDS011;13866;50.748;12.630;2023-05-07T11:29:54;5.77;;;5.27;;
26106;SDS011;13866;50.748;12.630;2023-05-07T11:32:23;5.40;;;5.10;;
26106;SDS011;13866;50.748;12.630;2023-05-07T11:34:52;5.37;;;5.17;;
26106;SDS011;13866;50.748;12.630;2023-05-07T11:37:19;4.37;;;4.37;;
26106;SDS011;13866;50.748;12.630;2023-05-07T11:39:45;4.60;;;4.50;;
26106;SDS011;13866;50.748;12.630;2023-05-07T11:42:25;4.40;;;4.30;;
26106;SDS011;13866;50.748;12.630;2023-05-07T11:44:53;4.50;;;4.20;;
26106;SDS011;13866;50.748;12.630;2023-05-07T11:47:19;5.03;;;4.73;;
26106;SDS011;13866;50.748;12.630;2023-05-07T11:49:49;4.27;;;4.17;;
26106;SDS011;13866;50.748;12.630;2023-05-07T11:52:16;4.60;;;4.50;;
26106;SDS011;13866;50.748;12.630;2023-05-07T11:54:54;4.70;;;4.60;;
26106;SDS011;13866;50.748;12.630;2023-05-07T11:57:21;3.80;;;3.70;;
26106;SDS011;13866;50.748;12.630;2023-05-07T11:59:47;5.50;;;5.30;;
26106;SDS011;13866;50.748;12.630;2023-05-07T12:02:17;3.90;;;3.90;;
26106;SDS011;13866;50.748;12.630;2023-05-07T12:04:42;4.37;;;4.27;;
26106;SDS011;13866;50.748;12.630;2023-05-07T12:07:11;4.90;;;4.80;;
26106;SDS011;13866;50.748;12.630;2023-05-07T12:09:41;4.73;;;4.63;;
26106;SDS011;13866;50.748;12.630;2023-05-07T12:12:08;4.63;;;4.53;;
26106;SDS011;13866;50.748;12.630;2023-05-07T12:14:37;4.43;;;4.33;;
26106;SDS011;13866;50.748;12.630;2023-05-07T12:17:10;4.77;;;4.57;;
26106;SDS011;13866;50.748;12.630;2023-05-07T12:19:37;4.90;;;4.70;;
26106;SDS011;13866;50.748;12.630;2023-05-07T12:22:04;4.70;;;4.60;;
26106;SDS011;13866;50.748;12.630;2023-05-07T12:24:48;5.50;;;5.40;;
26106;SDS011;13866;50.748;12.630;2023-05-07T12:27:21;6.03;;;5.63;;
26106;SDS011;13866;50.748;12.630;2023-05-07T12:29:47;3.97;;;3.90;;
26106;SDS011;13866;50.748;12.630;2023-05-07T12:32:14;4.87;;;4.77;;
26106;SDS011;13866;50.748;12.630;2023-05-07T12:34:43;4.33;;;4.23;;
26106;SDS011;13866;50.748;12.630;2023-05-07T12:37:09;4.40;;;4.30;;
26106;SDS011;13866;50.748;12.630;2023-05-07T12:39:35;4.17;;;4.07;;
26106;SDS011;13866;50.748;12.630;2023-05-07T12:42:00;4.70;;;4.60;;
26106;SDS011;13866;50.748;12.630;2023-05-07T12:44:30;4.10;;;4.00;;
26106;SDS011;13866;50.748;12.630;2023-05-07T12:46:57;5.80;;;5.60;;
26106;SDS011;13866;50.748;12.630;2023-05-07T12:49:23;5.07;;;4.90;;
26106;SDS011;13866;50.748;12.630;2023-05-07T12:51:49;4.47;;;4.37;;
26106;SDS011;13866;50.748;12.630;2023-05-07T12:54:28;5.23;;;5.03;;
26106;SDS011;13866;50.748;12.630;2023-05-07T12:57:01;5.23;;;5.13;;
26106;SDS011;13866;50.748;12.630;2023-05-07T12:59:32;4.70;;;4.60;;
26106;SDS011;13866;50.748;12.630;2023-05-07T13:02:05;5.10;;;4.90;;
26106;SDS011;13866;50.748;12.630;2023-05-07T13:04:46;4.47;;;4.37;;
26106;SDS011;13866;50.748;12.630;2023-05-07T13:07:12;5.10;;;4.73;;
26106;SDS011;13866;50.748;12.630;2023-05-07T13:09:38;4.40;;;4.40;;
26106;SDS011;13866;50.748;12.630;2023-05-07T13:12:04;4.20;;;4.20;;
26106;SDS011;13866;50.748;12.630;2023-05-07T13:14:31;4.67;;;4.50;;
26106;SDS011;13866;50.748;12.630;2023-05-07T13:16:56;6.30;;;4.53;;
26106;SDS011;13866;50.748;12.630;2023-05-07T13:19:22;5.07;;;4.97;;
26106;SDS011;13866;50.748;12.630;2023-05-07T13:21:47;4.63;;;4.53;;
26106;SDS011;13866;50.748;12.630;2023-05-07T13:24:14;4.50;;;4.20;;
26106;SDS011;13866;50.748;12.630;2023-05-07T13:26:40;3.90;;;3.90;;
26106;SDS011;13866;50.748;12.630;2023-05-07T13:29:05;4.30;;;4.20;;
26106;SDS011;13866;50.748;12.630;2023-05-07T13:31:31;4.97;;;4.77;;
26106;SDS011;13866;50.748;12.630;2023-05-07T13:33:56;4.43;;;4.30;;
26106;SDS011;13866;50.748;12.630;2023-05-07T13:36:25;4.50;;;4.40;;
26106;SDS011;13866;50.748;12.630;2023-05-07T13:38:51;4.93;;;4.83;;
26106;SDS011;13866;50.748;12.630;2023-05-07T13:41:17;4.70;;;4.60;;
26106;SDS011;13866;50.748;12.630;2023-05-07T13:43:42;4.90;;;4.70;;
26106;SDS011;13866;50.748;12.630;2023-05-07T13:46:08;4.13;;;4.03;;
26106;SDS011;13866;50.748;12.630;2023-05-07T13:48:34;4.50;;;4.40;;
26106;SDS011;13866;50.748;12.630;2023-05-07T13:50:59;4.90;;;4.80;;
26106;SDS011;13866;50.748;12.630;2023-05-07T13:53:25;5.43;;;5.27;;
26106;SDS011;13866;50.748;12.630;2023-05-07T13:55:50;4.97;;;4.83;;
26106;SDS011;13866;50.748;12.630;2023-05-07T13:58:15;3.57;;;3.50;;
26106;SDS011;13866;50.748;12.630;2023-05-07T14:00:47;4.33;;;4.27;;
26106;SDS011;13866;50.748;12.630;2023-05-07T14:03:13;4.60;;;4.50;;
26106;SDS011;13866;50.748;12.630;2023-05-07T14:05:38;5.40;;;5.23;;
26106;SDS011;13866;50.748;12.630;2023-05-07T14:08:04;4.37;;;4.27;;
26106;SDS011;13866;50.748;12.630;2023-05-07T14:10:30;5.33;;;5.03;;
26106;SDS011;13866;50.748;12.630;2023-05-07T14:12:56;4.50;;;4.40;;
26106;SDS011;13866;50.748;12.630;2023-05-07T14:15:22;4.43;;;4.43;;
26106;SDS011;13866;50.748;12.630;2023-05-07T14:17:47;4.80;;;4.70;;
26106;SDS011;13866;50.748;12.630;2023-05-07T14:20:13;4.67;;;4.57;;
26106;SDS011;13866;50.748;12.630;2023-05-07T14:22:38;4.93;;;4.83;;
26106;SDS011;13866;50.748;12.630;2023-05-07T14:25:04;5.50;;;5.20;;
26106;SDS011;13866;50.748;12.630;2023-05-07T14:27:30;4.90;;;4.80;;
26106;SDS011;13866;50.748;12.630;2023-05-07T14:29:55;3.97;;;3.87;;
26106;SDS011;13866;50.748;12.630;2023-05-07T14:32:21;6.27;;;6.07;;
26106;SDS011;13866;50.748;12.630;2023-05-07T14:34:47;3.90;;;3.80;;